createdAt,value
2023-03-01T00:00:36.845Z,-0.78
2023-03-01T00:01:36.348Z,-0.79
2023-03-01T00:02:34.439Z,-0.81
2023-03-01T00:03:35.904Z,-0.80
2023-03-01T00:04:35.882Z,-0.80
2023-03-01T00:05:36.493Z,-0.80
2023-03-01T00:06:35.689Z,-0.80
2023-03-01T00:07:34.928Z,-0.81
2023-03-01T00:08:35.623Z,-0.81
2023-03-01T00:10:35.674Z,-0.83
2023-03-01T00:11:34.966Z,-0.85
2023-03-01T00:12:35.843Z,-0.86
2023-03-01T00:13:35.851Z,-0.87
2023-03-01T00:14:35.619Z,-0.89
2023-03-01T00:15:35.649Z,-0.89
2023-03-01T00:16:35.279Z,-0.90
2023-03-01T00:17:34.787Z,-0.92
2023-03-01T00:18:35.379Z,-0.94
2023-03-01T00:19:34.750Z,-0.96
2023-03-01T00:20:35.633Z,-0.95
2023-03-01T00:21:35.938Z,-0.97
2023-03-01T00:22:34.873Z,-0.96
2023-03-01T00:23:34.665Z,-0.96
2023-03-01T00:24:35.028Z,-0.97
2023-03-01T00:25:34.869Z,-0.99
2023-03-01T00:26:35.420Z,-1.00
2023-03-01T00:27:34.793Z,-0.98
2023-03-01T00:28:34.649Z,-0.99
2023-03-01T00:29:34.682Z,-0.98
2023-03-01T00:30:35.625Z,-0.99
2023-03-01T00:31:34.491Z,-1.02
2023-03-01T00:32:34.628Z,-1.02
2023-03-01T00:33:34.893Z,-1.03
2023-03-01T00:34:34.363Z,-1.07
2023-03-01T00:35:35.509Z,-1.09
2023-03-01T00:36:35.111Z,-1.09
2023-03-01T00:37:34.285Z,-1.11
2023-03-01T00:38:34.935Z,-1.12
2023-03-01T00:39:34.940Z,-1.11
2023-03-01T00:40:35.376Z,-1.13
2023-03-01T00:41:35.549Z,-1.13
2023-03-01T00:42:34.634Z,-1.13
2023-03-01T00:43:35.296Z,-1.16
2023-03-01T00:44:34.230Z,-1.22
2023-03-01T00:45:35.229Z,-1.21
2023-03-01T00:46:35.364Z,-1.21
2023-03-01T00:47:34.931Z,-1.20
2023-03-01T00:48:34.652Z,-1.23
2023-03-01T00:49:35.159Z,-1.23
2023-03-01T00:50:34.749Z,-1.24
2023-03-01T00:51:35.180Z,-1.24
2023-03-01T00:52:34.085Z,-1.25
2023-03-01T00:53:34.655Z,-1.26
2023-03-01T00:54:34.810Z,-1.28
2023-03-01T00:55:35.294Z,-1.29
2023-03-01T00:56:34.801Z,-1.30
2023-03-01T00:57:35.446Z,-1.33
2023-03-01T00:58:34.290Z,-1.36
2023-03-01T00:59:34.535Z,-1.37
2023-03-01T01:00:36.359Z,-1.36
2023-03-01T01:01:39.592Z,-1.36
2023-03-01T01:02:35.311Z,-1.35
2023-03-01T01:03:34.476Z,-1.36
2023-03-01T01:04:34.746Z,-1.36
2023-03-01T01:05:35.422Z,-1.36
2023-03-01T01:06:34.743Z,-1.38
2023-03-01T01:07:35.133Z,-1.40
2023-03-01T01:08:34.464Z,-1.38
2023-03-01T01:09:34.094Z,-1.40
2023-03-01T01:10:34.612Z,-1.39
2023-03-01T01:11:34.521Z,-1.39
2023-03-01T01:12:35.007Z,-1.39
2023-03-01T01:13:34.202Z,-1.39
2023-03-01T01:14:34.897Z,-1.41
2023-03-01T01:15:35.088Z,-1.41
2023-03-01T01:16:34.947Z,-1.41
2023-03-01T01:17:35.249Z,-1.41
2023-03-01T01:18:34.060Z,-1.41
2023-03-01T01:19:34.533Z,-1.40
2023-03-01T01:20:35.187Z,-1.40
2023-03-01T01:21:34.562Z,-1.42
2023-03-01T01:22:34.715Z,-1.43
2023-03-01T01:23:34.974Z,-1.45
2023-03-01T01:24:35.099Z,-1.48
2023-03-01T01:25:34.952Z,-1.51
2023-03-01T01:26:35.418Z,-1.51
2023-03-01T01:27:34.113Z,-1.51
2023-03-01T01:28:34.454Z,-1.52
2023-03-01T01:29:34.142Z,-1.52
2023-03-01T01:30:34.807Z,-1.51
2023-03-01T01:31:34.716Z,-1.53
2023-03-01T01:32:35.451Z,-1.55
2023-03-01T01:33:34.913Z,-1.57
2023-03-01T01:34:34.393Z,-1.60
2023-03-01T01:35:34.867Z,-1.61
2023-03-01T01:36:34.688Z,-1.62
2023-03-01T01:37:35.216Z,-1.62
2023-03-01T01:38:34.360Z,-1.62
2023-03-01T01:39:34.494Z,-1.62
2023-03-01T01:40:35.429Z,-1.64
2023-03-01T01:41:34.618Z,-1.67
2023-03-01T01:42:35.010Z,-1.68
2023-03-01T01:43:34.351Z,-1.70
2023-03-01T01:44:34.754Z,-1.70
2023-03-01T01:45:34.671Z,-1.69
2023-03-01T01:46:34.958Z,-1.70
2023-03-01T01:47:34.702Z,-1.70
2023-03-01T01:48:35.187Z,-1.72
2023-03-01T01:49:34.296Z,-1.73
2023-03-01T01:50:34.016Z,-1.75
2023-03-01T01:51:34.518Z,-1.78
2023-03-01T01:52:34.795Z,-1.79
2023-03-01T01:53:35.093Z,-1.82
2023-03-01T01:54:34.345Z,-1.81
2023-03-01T01:55:34.426Z,-1.81
2023-03-01T01:56:33.783Z,-1.81
2023-03-01T01:57:34.186Z,-1.81
2023-03-01T01:58:34.504Z,-1.81
2023-03-01T01:59:35.017Z,-1.84
2023-03-01T02:00:36.079Z,-1.86
2023-03-01T02:01:50.537Z,-1.87
2023-03-01T02:02:35.899Z,-1.90
2023-03-01T02:03:35.818Z,-1.88
2023-03-01T02:04:35.188Z,-1.87
2023-03-01T02:05:34.672Z,-1.86
2023-03-01T02:06:34.746Z,-1.85
2023-03-01T02:07:35.176Z,-1.87
2023-03-01T02:08:35.074Z,-1.88
2023-03-01T02:09:34.683Z,-1.90
2023-03-01T02:10:34.541Z,-1.90
2023-03-01T02:11:34.488Z,-1.93
2023-03-01T02:12:35.592Z,-1.96
2023-03-01T02:13:35.543Z,-1.95
2023-03-01T02:14:34.938Z,-1.96
2023-03-01T02:15:36.125Z,-1.99
2023-03-01T02:16:34.717Z,-2.02
2023-03-01T02:17:35.000Z,-2.02
2023-03-01T02:18:34.765Z,-2.03
2023-03-01T02:19:42.420Z,-2.04
2023-03-01T02:20:34.800Z,-2.05
2023-03-01T02:21:35.069Z,-2.05
2023-03-01T02:22:34.667Z,-2.06
2023-03-01T02:23:34.662Z,-2.06
2023-03-01T02:24:34.470Z,-2.06
2023-03-01T02:25:42.809Z,-2.07
2023-03-01T02:26:35.493Z,-2.08
2023-03-01T02:27:34.637Z,-2.09
2023-03-01T02:28:34.688Z,-2.09
2023-03-01T02:29:35.104Z,-2.09
2023-03-01T02:30:34.591Z,-2.12
2023-03-01T02:31:48.674Z,-2.11
2023-03-01T02:32:34.952Z,-2.14
2023-03-01T02:33:35.151Z,-2.12
2023-03-01T02:34:34.619Z,-2.14
2023-03-01T02:35:48.923Z,-2.16
2023-03-01T02:36:34.701Z,-2.17
2023-03-01T02:37:35.386Z,-2.17
2023-03-01T02:38:35.142Z,-2.16
2023-03-01T02:39:34.836Z,-2.15
2023-03-01T02:40:34.809Z,-2.16
2023-03-01T02:41:35.535Z,-2.20
2023-03-01T02:42:35.113Z,-2.21
2023-03-01T02:43:35.339Z,-2.20
2023-03-01T02:44:35.163Z,-2.19
2023-03-01T02:45:35.096Z,-2.20
2023-03-01T02:46:35.123Z,-2.21
2023-03-01T02:47:34.808Z,-2.24
2023-03-01T02:48:34.940Z,-2.24
2023-03-01T02:49:35.801Z,-2.23
2023-03-01T02:50:35.015Z,-2.24
2023-03-01T02:51:35.094Z,-2.25
2023-03-01T02:52:34.456Z,-2.26
2023-03-01T02:53:34.502Z,-2.27
2023-03-01T02:54:35.066Z,-2.28
2023-03-01T02:55:34.833Z,-2.28
2023-03-01T02:56:34.853Z,-2.28
2023-03-01T02:57:34.733Z,-2.30
2023-03-01T02:58:35.504Z,-2.29
2023-03-01T02:59:36.134Z,-2.30
2023-03-01T03:00:37.432Z,-2.31
2023-03-01T03:01:35.757Z,-2.31
2023-03-01T03:02:35.101Z,-2.33
2023-03-01T03:03:35.148Z,-2.34
2023-03-01T03:04:34.342Z,-2.34
2023-03-01T03:05:35.185Z,-2.36
2023-03-01T03:06:34.337Z,-2.39
2023-03-01T03:07:34.051Z,-2.39
2023-03-01T03:08:34.428Z,-2.41
2023-03-01T03:09:35.161Z,-2.42
2023-03-01T03:10:34.756Z,-2.40
2023-03-01T03:11:34.736Z,-2.41
2023-03-01T03:12:34.021Z,-2.43
2023-03-01T03:13:34.538Z,-2.43
2023-03-01T03:14:34.157Z,-2.42
2023-03-01T03:15:34.246Z,-2.43
2023-03-01T03:16:34.543Z,-2.43
2023-03-01T03:17:34.512Z,-2.44
2023-03-01T03:18:35.411Z,-2.47
2023-03-01T03:19:34.286Z,-2.46
2023-03-01T03:20:35.757Z,-2.46
2023-03-01T03:21:35.809Z,-2.46
2023-03-01T03:22:35.896Z,-2.46
2023-03-01T03:23:35.185Z,-2.47
2023-03-01T03:24:34.579Z,-2.49
2023-03-01T03:25:36.022Z,-2.50
2023-03-01T03:26:34.760Z,-2.50
2023-03-01T03:27:34.491Z,-2.49
2023-03-01T03:28:34.664Z,-2.48
2023-03-01T03:29:34.858Z,-2.49
2023-03-01T03:30:35.686Z,-2.52
2023-03-01T03:31:35.241Z,-2.52
2023-03-01T03:32:35.728Z,-2.54
2023-03-01T03:33:35.634Z,-2.54
2023-03-01T03:34:35.524Z,-2.56
2023-03-01T03:35:34.848Z,-2.58
2023-03-01T03:36:34.824Z,-2.59
2023-03-01T03:37:34.615Z,-2.61
2023-03-01T03:38:34.830Z,-2.60
2023-03-01T03:39:34.596Z,-2.62
2023-03-01T03:40:34.481Z,-2.63
2023-03-01T03:41:34.711Z,-2.60
2023-03-01T03:42:34.761Z,-2.59
2023-03-01T03:43:35.190Z,-2.58
2023-03-01T03:44:34.590Z,-2.61
2023-03-01T03:45:34.652Z,-2.60
2023-03-01T03:46:35.046Z,-2.60
2023-03-01T03:47:34.722Z,-2.58
2023-03-01T03:48:34.928Z,-2.58
2023-03-01T03:49:35.655Z,-2.61
2023-03-01T03:50:35.260Z,-2.65
2023-03-01T03:51:33.612Z,-2.65
2023-03-01T03:52:34.529Z,-2.67
2023-03-01T03:53:34.267Z,-2.70
2023-03-01T03:54:34.753Z,-2.72
2023-03-01T03:55:35.737Z,-2.72
2023-03-01T03:56:34.722Z,-2.71
2023-03-01T03:57:35.054Z,-2.72
2023-03-01T03:58:34.958Z,-2.73
2023-03-01T03:59:35.770Z,-2.73
2023-03-01T04:00:37.065Z,-2.74
2023-03-01T04:01:35.581Z,-2.74
2023-03-01T04:02:35.189Z,-2.75
2023-03-01T04:03:35.039Z,-2.77
2023-03-01T04:04:34.847Z,-2.78
2023-03-01T04:05:34.998Z,-2.78
2023-03-01T04:06:35.110Z,-2.77
2023-03-01T04:07:35.064Z,-2.74
2023-03-01T04:08:34.541Z,-2.74
2023-03-01T04:09:34.880Z,-2.74
2023-03-01T04:10:35.722Z,-2.76
2023-03-01T04:11:34.156Z,-2.76
2023-03-01T04:12:34.155Z,-2.76
2023-03-01T04:13:34.581Z,-2.77
2023-03-01T04:14:34.705Z,-2.75
2023-03-01T04:15:35.830Z,-2.76
2023-03-01T04:16:44.137Z,-2.78
2023-03-01T04:17:34.224Z,-2.78
2023-03-01T04:18:35.357Z,-2.80
2023-03-01T04:19:34.089Z,-2.81
2023-03-01T04:20:34.816Z,-2.80
2023-03-01T04:21:34.844Z,-2.81
2023-03-01T04:22:34.075Z,-2.83
2023-03-01T04:23:34.670Z,-2.83
2023-03-01T04:24:34.440Z,-2.85
2023-03-01T04:25:34.974Z,-2.86
2023-03-01T04:26:34.786Z,-2.85
2023-03-01T04:27:34.547Z,-2.86
2023-03-01T04:28:35.031Z,-2.85
2023-03-01T04:29:34.403Z,-2.86
2023-03-01T04:30:34.672Z,-2.87
2023-03-01T04:31:35.261Z,-2.85
2023-03-01T04:32:34.514Z,-2.85
2023-03-01T04:33:35.421Z,-2.87
2023-03-01T04:34:35.143Z,-2.87
2023-03-01T04:35:34.824Z,-2.88
2023-03-01T04:36:36.214Z,-2.88
2023-03-01T04:37:34.877Z,-2.88
2023-03-01T04:38:35.453Z,-2.88
2023-03-01T04:39:34.999Z,-2.88
2023-03-01T04:40:34.784Z,-2.89
2023-03-01T04:41:35.300Z,-2.90
2023-03-01T04:42:35.571Z,-2.88
2023-03-01T04:43:36.084Z,-2.89
2023-03-01T04:44:35.411Z,-2.91
2023-03-01T04:45:35.298Z,-2.93
2023-03-01T04:46:40.140Z,-2.95
2023-03-01T04:47:34.591Z,-2.96
2023-03-01T04:48:57.192Z,-2.96
2023-03-01T04:49:34.567Z,-2.94
2023-03-01T04:50:35.305Z,-2.96
2023-03-01T04:51:34.847Z,-2.99
2023-03-01T04:52:35.277Z,-3.00
2023-03-01T04:53:35.179Z,-3.00
2023-03-01T04:54:34.684Z,-2.98
2023-03-01T04:55:35.447Z,-2.99
2023-03-01T04:56:35.057Z,-3.00
2023-03-01T04:57:34.649Z,-3.01
2023-03-01T04:58:34.449Z,-3.00
2023-03-01T04:59:34.600Z,-3.01
2023-03-01T05:00:37.280Z,-3
2023-03-01T05:01:35.759Z,-3.01
2023-03-01T05:02:36.045Z,-3.04
2023-03-01T05:03:35.044Z,-3.03
2023-03-01T05:04:35.439Z,-3.05
2023-03-01T05:05:36.171Z,-3.06
2023-03-01T05:06:36.413Z,-3.06
2023-03-01T05:07:35.462Z,-3.08
2023-03-01T05:08:34.979Z,-3.10
2023-03-01T05:09:34.686Z,-3.10
2023-03-01T05:10:35.005Z,-3.10
2023-03-01T05:11:35.196Z,-3.10
2023-03-01T05:12:34.479Z,-3.11
2023-03-01T05:13:35.260Z,-3.11
2023-03-01T05:14:34.500Z,-3.12
2023-03-01T05:15:36.016Z,-3.15
2023-03-01T05:16:36.407Z,-3.14
2023-03-01T05:17:35.334Z,-3.14
2023-03-01T05:18:35.434Z,-3.14
2023-03-01T05:19:35.462Z,-3.12
2023-03-01T05:20:35.652Z,-3.13
2023-03-01T05:21:35.391Z,-3.15
2023-03-01T05:22:34.883Z,-3.17
2023-03-01T05:23:35.042Z,-3.18
2023-03-01T05:24:34.976Z,-3.22
2023-03-01T05:25:36.059Z,-3.25
2023-03-01T05:26:42.323Z,-3.23
2023-03-01T05:27:34.657Z,-3.23
2023-03-01T05:28:35.137Z,-3.23
2023-03-01T05:29:34.430Z,-3.22
2023-03-01T05:30:35.261Z,-3.22
2023-03-01T05:31:34.884Z,-3.23
2023-03-01T05:32:34.656Z,-3.23
2023-03-01T05:33:36.836Z,-3.24
2023-03-01T05:34:34.719Z,-3.23
2023-03-01T05:35:35.416Z,-3.21
2023-03-01T05:36:35.203Z,-3.22
2023-03-01T05:37:35.207Z,-3.21
2023-03-01T05:38:34.725Z,-3.22
2023-03-01T05:39:35.274Z,-3.25
2023-03-01T05:40:35.024Z,-3.24
2023-03-01T05:41:34.579Z,-3.25
2023-03-01T05:42:34.744Z,-3.25
2023-03-01T05:43:34.757Z,-3.25
2023-03-01T05:44:34.884Z,-3.24
2023-03-01T05:45:35.516Z,-3.22
2023-03-01T05:46:35.591Z,-3.24
2023-03-01T05:47:35.102Z,-3.26
2023-03-01T05:48:34.899Z,-3.25
2023-03-01T05:49:35.143Z,-3.25
2023-03-01T05:50:34.897Z,-3.26
2023-03-01T05:51:36.303Z,-3.27
2023-03-01T05:52:35.008Z,-3.30
2023-03-01T05:53:35.207Z,-3.31
2023-03-01T05:54:34.794Z,-3.33
2023-03-01T05:55:34.939Z,-3.34
2023-03-01T05:56:34.746Z,-3.34
2023-03-01T05:57:34.917Z,-3.34
2023-03-01T05:58:35.132Z,-3.35
2023-03-01T05:59:34.730Z,-3.35
2023-03-01T06:00:36.486Z,-3.35
2023-03-01T06:01:35.450Z,-3.35
2023-03-01T06:02:35.204Z,-3.34
2023-03-01T06:03:35.253Z,-3.35
2023-03-01T06:04:34.484Z,-3.35
2023-03-01T06:05:35.152Z,-3.36
2023-03-01T06:06:35.003Z,-3.39
2023-03-01T06:07:34.789Z,-3.41
2023-03-01T06:08:34.616Z,-3.41
2023-03-01T06:09:34.920Z,-3.44
2023-03-01T06:10:35.610Z,-3.44
2023-03-01T06:11:35.926Z,-3.45
2023-03-01T06:12:36.106Z,-3.43
2023-03-01T06:13:35.593Z,-3.45
2023-03-01T06:14:34.586Z,-3.45
2023-03-01T06:15:35.413Z,-3.45
2023-03-01T06:16:35.735Z,-3.47
2023-03-01T06:17:35.903Z,-3.49
2023-03-01T06:18:35.704Z,-3.49
2023-03-01T06:19:35.204Z,-3.48
2023-03-01T06:20:35.984Z,-3.48
2023-03-01T06:21:35.738Z,-3.47
2023-03-01T06:22:36.344Z,-3.46
2023-03-01T06:23:36.067Z,-3.48
2023-03-01T06:24:34.831Z,-3.50
2023-03-01T06:25:36.630Z,-3.50
2023-03-01T06:26:35.468Z,-3.52
2023-03-01T06:27:40.089Z,-3.52
2023-03-01T06:28:35.211Z,-3.52
2023-03-01T06:29:35.227Z,-3.52
2023-03-01T06:30:36.075Z,-3.55
2023-03-01T06:31:34.932Z,-3.54
2023-03-01T06:32:35.104Z,-3.51
2023-03-01T06:33:40.389Z,-3.50
2023-03-01T06:34:35.347Z,-3.50
2023-03-01T06:35:39.717Z,-3.50
2023-03-01T06:37:35.972Z,-3.51
2023-03-01T06:38:35.869Z,-3.52
2023-03-01T06:39:35.488Z,-3.51
2023-03-01T06:40:35.203Z,-3.52
2023-03-01T06:41:35.125Z,-3.50
2023-03-01T06:42:34.870Z,-3.48
2023-03-01T06:43:35.185Z,-3.48
2023-03-01T06:44:35.389Z,-3.48
2023-03-01T06:45:35.141Z,-3.46
2023-03-01T06:46:35.423Z,-3.45
2023-03-01T06:47:48.908Z,-3.44
2023-03-01T06:48:35.105Z,-3.42
2023-03-01T06:49:34.655Z,-3.43
2023-03-01T06:50:36.439Z,-3.45
2023-03-01T06:51:49.596Z,-3.46
2023-03-01T06:52:35.491Z,-3.46
2023-03-01T06:53:35.139Z,-3.45
2023-03-01T06:54:34.655Z,-3.44
2023-03-01T06:55:35.369Z,-3.41
2023-03-01T06:56:36.234Z,-3.41
2023-03-01T06:57:35.442Z,-3.42
2023-03-01T06:58:35.704Z,-3.41
2023-03-01T06:59:35.728Z,-3.40
2023-03-01T07:00:37.434Z,-3.40
2023-03-01T07:01:37.000Z,-3.40
2023-03-01T07:02:35.947Z,-3.40
2023-03-01T07:03:36.561Z,-3.37
2023-03-01T07:04:35.050Z,-3.37
2023-03-01T07:05:40.725Z,-3.37
2023-03-01T07:06:35.432Z,-3.37
2023-03-01T07:07:34.848Z,-3.37
2023-03-01T07:08:36.064Z,-3.37
2023-03-01T07:09:35.426Z,-3.34
2023-03-01T07:10:35.332Z,-3.30
2023-03-01T07:11:35.783Z,-3.31
2023-03-01T07:12:35.703Z,-3.30
2023-03-01T07:13:34.972Z,-3.30
2023-03-01T07:14:39.403Z,-3.30
2023-03-01T07:15:36.083Z,-3.28
2023-03-01T07:16:37.081Z,-3.26
2023-03-01T07:17:35.863Z,-3.26
2023-03-01T07:18:35.878Z,-3.24
2023-03-01T07:19:35.793Z,-3.23
2023-03-01T07:20:36.213Z,-3.20
2023-03-01T07:21:34.985Z,-3.16
2023-03-01T07:22:35.115Z,-3.13
2023-03-01T07:23:35.848Z,-3.10
2023-03-01T07:24:35.872Z,-3.10
2023-03-01T07:25:35.644Z,-3.09
2023-03-01T07:26:38.585Z,-3.08
2023-03-01T07:27:36.345Z,-3.07
2023-03-01T07:28:36.456Z,-3.02
2023-03-01T07:29:35.272Z,-2.99
2023-03-01T07:30:35.007Z,-2.98
2023-03-01T07:31:49.248Z,-2.96
2023-03-01T07:32:35.789Z,-2.93
2023-03-01T07:33:36.061Z,-2.90
2023-03-01T07:34:35.568Z,-2.87
2023-03-01T07:35:36.501Z,-2.84
2023-03-01T07:36:35.744Z,-2.80
2023-03-01T07:37:36.308Z,-2.78
2023-03-01T07:38:36.212Z,-2.76
2023-03-01T07:39:35.929Z,-2.75
2023-03-01T07:40:36.267Z,-2.72
2023-03-01T07:41:36.417Z,-2.69
2023-03-01T07:42:35.540Z,-2.23
2023-03-01T07:43:36.291Z,-2.64
2023-03-01T07:44:35.482Z,-2.59
2023-03-01T07:45:35.783Z,-2.53
2023-03-01T07:46:36.433Z,-2.49
2023-03-01T07:47:35.857Z,-2.47
2023-03-01T07:48:36.485Z,-2.44
2023-03-01T07:49:58.997Z,-2.41
2023-03-01T07:50:36.149Z,-2.38
2023-03-01T07:51:36.104Z,-2.34
2023-03-01T07:52:35.426Z,-2.30
2023-03-01T07:53:35.872Z,-2.28
2023-03-01T07:54:35.707Z,-2.27
2023-03-01T07:55:36.449Z,-2.26
2023-03-01T07:56:35.561Z,-2.24
2023-03-01T07:57:35.860Z,-2.18
2023-03-01T07:58:36.409Z,-2.13
2023-03-01T07:59:35.634Z,-2.09
2023-03-01T08:00:37.597Z,-2.04
2023-03-01T08:01:39.763Z,-1.99
2023-03-01T08:02:36.340Z,-2.01
2023-03-01T08:03:35.946Z,-2.03
2023-03-01T08:04:36.630Z,-2.02
2023-03-01T08:05:37.327Z,-1.96
2023-03-01T08:06:35.261Z,-1.92
2023-03-01T08:07:36.233Z,-1.86
2023-03-01T08:08:36.598Z,-1.83
2023-03-01T08:10:36.152Z,-1.74
2023-03-01T08:11:36.499Z,-1.70
2023-03-01T08:12:35.678Z,-1.69
2023-03-01T08:13:37.623Z,-1.65
2023-03-01T08:14:36.807Z,-1.62
2023-03-01T08:15:37.287Z,-1.61
2023-03-01T08:16:36.652Z,-1.57
2023-03-01T08:17:36.541Z,-1.54
2023-03-01T08:18:36.908Z,-1.52
2023-03-01T08:19:35.874Z,-1.47
2023-03-01T08:20:36.389Z,-1.46
2023-03-01T08:21:36.943Z,-1.45
2023-03-01T08:22:36.985Z,-1.41
2023-03-01T08:23:36.098Z,-1.38
2023-03-01T08:24:35.917Z,-1.38
2023-03-01T08:25:36.378Z,-1.37
2023-03-01T08:26:37.041Z,-1.35
2023-03-01T08:27:38.164Z,-1.34
2023-03-01T08:28:37.432Z,-1.27
2023-03-01T08:29:37.812Z,-1.26
2023-03-01T08:30:38.364Z,-1.27
2023-03-01T08:31:36.751Z,-1.25
2023-03-01T08:32:37.017Z,-1.17
2023-03-01T08:33:36.807Z,-1.13
2023-03-01T08:34:37.446Z,-1.10
2023-03-01T08:35:37.991Z,-1.08
2023-03-01T08:36:36.605Z,-1.05
2023-03-01T08:37:36.458Z,-0.99
2023-03-01T08:38:36.909Z,-0.97
2023-03-01T08:39:36.244Z,-0.99
2023-03-01T08:40:36.018Z,-0.99
2023-03-01T08:41:35.706Z,-0.95
2023-03-01T08:47:32.984Z,-0.71
2023-03-01T08:48:37.210Z,-0.66
2023-03-01T08:49:32.280Z,-0.62
2023-03-01T08:50:37.262Z,-0.58
2023-03-01T08:51:31.521Z,-0.55
2023-03-01T08:52:37.176Z,-0.50
2023-03-01T08:53:31.845Z,-0.45
2023-03-01T08:54:32.250Z,-0.41
2023-03-01T08:55:31.487Z,-0.36
2023-03-01T08:56:37.535Z,-0.32
2023-03-01T08:57:32.145Z,-0.30
2023-03-01T08:58:32.606Z,-0.21
2023-03-01T08:59:32.654Z,-0.21
2023-03-01T09:00:39.151Z,-0.18
2023-03-01T09:01:33.328Z,-0.15
2023-03-01T09:02:41.048Z,-0.09
2023-03-01T09:03:32.493Z,-0.02
2023-03-01T09:04:40.401Z,0.026
2023-03-01T09:05:32.682Z,0.051
2023-03-01T09:06:40.625Z,0.108
2023-03-01T09:07:32.679Z,0.094
2023-03-01T09:09:33.077Z,0.101
2023-03-01T09:11:32.150Z,0.118
2023-03-01T09:12:32.412Z,0.125
2023-03-01T09:13:33.734Z,0.143
2023-03-01T09:14:32.914Z,0.180
2023-03-01T09:15:33.520Z,0.204
2023-03-01T09:16:33.154Z,0.228
2023-03-01T09:17:32.600Z,0.263
2023-03-01T09:19:32.752Z,0.284
2023-03-01T09:20:37.882Z,0.305
2023-03-01T09:21:49.984Z,0.330
2023-03-01T09:23:32.582Z,0.351
2023-03-01T09:24:37.459Z,0.370
2023-03-01T09:25:32.487Z,0.435
2023-03-01T09:27:32.342Z,0.468
2023-03-01T09:28:42.224Z,0.471
2023-03-01T09:29:31.555Z,0.521
2023-03-01T09:31:32.098Z,0.533
2023-03-01T09:32:53.445Z,0.540
2023-03-01T09:33:33.085Z,0.550
2023-03-01T09:35:33.473Z,0.560
2023-03-01T09:37:32.284Z,0.560
2023-03-01T09:39:33.297Z,0.563
2023-03-01T09:41:32.073Z,0.573
2023-03-01T09:42:32.556Z,0.584
2023-03-01T09:43:33.066Z,0.584
2023-03-01T09:45:33.062Z,0.582
2023-03-01T09:47:32.298Z,0.620
2023-03-01T09:49:33.114Z,0.632
2023-03-01T09:50:32.686Z,0.620
2023-03-01T09:51:32.356Z,0.648
2023-03-01T09:52:32.656Z,0.665
2023-03-01T09:53:32.719Z,0.689
2023-03-01T09:55:32.909Z,0.783
2023-03-01T09:56:33.107Z,0.774
2023-03-01T09:57:32.446Z,0.782
2023-03-01T09:59:35.485Z,0.837
2023-03-01T10:00:33.693Z,0.866
2023-03-01T10:01:33.447Z,0.903
2023-03-01T10:03:32.939Z,0.939
2023-03-01T10:04:32.980Z,0.930
2023-03-01T10:05:32.404Z,0.951
2023-03-01T10:06:47.385Z,0.936
2023-03-01T10:07:32.745Z,0.938
2023-03-01T10:08:32.341Z,0.953
2023-03-01T10:09:32.535Z,0.954
2023-03-01T10:11:35.191Z,1.066
2023-03-01T10:12:32.149Z,1.136
2023-03-01T10:13:32.826Z,1.200
2023-03-01T10:14:33.568Z,1.211
2023-03-01T10:15:33.372Z,1.253
2023-03-01T10:16:32.528Z,1.289
2023-03-01T10:17:33.091Z,1.326
2023-03-01T10:18:32.414Z,1.346
2023-03-01T10:19:32.391Z,1.365
2023-03-01T10:21:33.069Z,1.416
2023-03-01T10:22:33.281Z,1.473
2023-03-01T10:23:33.834Z,1.554
2023-03-01T10:24:32.570Z,1.626
2023-03-01T10:25:32.791Z,1.668
2023-03-01T10:26:32.628Z,1.710
2023-03-01T10:27:32.294Z,1.678
2023-03-01T10:29:32.326Z,1.663
2023-03-01T10:31:32.603Z,1.683
2023-03-01T10:32:32.716Z,1.648
2023-03-01T10:33:32.458Z,1.664
2023-03-01T10:35:33.987Z,1.754
2023-03-01T10:37:32.507Z,1.851
2023-03-01T10:39:34.448Z,1.868
2023-03-01T10:40:32.758Z,1.853
2023-03-01T10:41:35.431Z,1.879
2023-03-01T10:42:35.500Z,1.950
2023-03-01T10:43:36.069Z,1.953
2023-03-01T10:44:35.753Z,1.948
2023-03-01T10:45:34.979Z,1.968
2023-03-01T10:46:36.399Z,2.016
2023-03-01T10:47:37.126Z,1.996
2023-03-01T10:48:36.181Z,2.011
2023-03-01T10:49:37.357Z,2.045
2023-03-01T10:50:36.258Z,2.073
2023-03-01T10:51:36.693Z,2.113
2023-03-01T10:52:35.881Z,2.160
2023-03-01T10:53:36.498Z,2.178
2023-03-01T10:54:36.877Z,2.188
2023-03-01T10:55:36.586Z,2.181
2023-03-01T10:56:36.965Z,2.236
2023-03-01T10:57:36.674Z,2.213
2023-03-01T10:58:36.008Z,2.204
2023-03-01T10:59:36.412Z,2.238
2023-03-01T11:00:37.601Z,2.296
2023-03-01T11:01:38.833Z,2.386
2023-03-01T11:02:40.043Z,2.440
2023-03-01T11:03:38.086Z,2.436
2023-03-01T11:04:38.608Z,2.421
2023-03-01T11:05:39.207Z,2.441
2023-03-01T11:06:36.977Z,2.481
2023-03-01T11:07:37.675Z,2.528
2023-03-01T11:08:38.485Z,2.573
2023-03-01T11:09:36.074Z,2.593
2023-03-01T11:10:36.802Z,2.595
2023-03-01T11:11:35.815Z,2.623
2023-03-01T11:12:36.049Z,2.680
2023-03-01T11:13:38.340Z,2.765
2023-03-01T11:14:41.112Z,2.816
2023-03-01T11:15:36.831Z,2.851
2023-03-01T11:16:37.268Z,2.838
2023-03-01T11:17:47.961Z,2.763
2023-03-01T11:18:48.322Z,2.789
2023-03-01T11:19:36.688Z,2.795
2023-03-01T11:20:38.274Z,2.805
2023-03-01T11:21:35.907Z,2.759
2023-03-01T11:22:36.594Z,2.744
2023-03-01T11:23:41.209Z,2.788
2023-03-01T11:24:35.894Z,2.892
2023-03-01T11:25:37.210Z,2.970
2023-03-01T11:26:37.587Z,3.002
2023-03-01T11:27:43.056Z,3.029
2023-03-01T11:28:36.791Z,3.015
2023-03-01T11:29:47.869Z,2.997
2023-03-01T11:30:37.289Z,3.076
2023-03-01T11:31:39.048Z,3.063
2023-03-01T11:32:35.782Z,3.091
2023-03-01T11:33:36.700Z,3.103
2023-03-01T11:34:36.318Z,3.109
2023-03-01T11:35:36.165Z,3.151
2023-03-01T11:36:36.799Z,3.158
2023-03-01T11:37:37.497Z,3.125
2023-03-01T11:39:36.388Z,3.198
2023-03-01T11:40:38.365Z,3.170
2023-03-01T11:41:37.195Z,3.174
2023-03-01T11:42:36.350Z,3.203
2023-03-01T11:43:51.032Z,3.25
2023-03-01T11:44:37.027Z,3.271
2023-03-01T11:45:36.284Z,3.276
2023-03-01T11:46:36.010Z,3.319
2023-03-01T11:47:36.040Z,3.346
2023-03-01T11:48:48.864Z,3.346
2023-03-01T11:49:35.951Z,3.371
2023-03-01T11:50:37.521Z,3.358
2023-03-01T11:51:37.033Z,3.428
2023-03-01T11:52:36.184Z,3.471
2023-03-01T11:53:37.003Z,3.460
2023-03-01T11:54:36.386Z,3.470
2023-03-01T11:55:42.495Z,3.488
2023-03-01T11:56:37.524Z,3.491
2023-03-01T11:57:43.831Z,3.513
2023-03-01T11:58:35.508Z,3.553
2023-03-01T11:59:36.763Z,3.555
2023-03-01T12:00:37.188Z,3.579
2023-03-01T12:01:56.537Z,3.634
2023-03-01T12:02:37.190Z,3.678
2023-03-01T12:03:36.326Z,3.723
2023-03-01T12:04:37.046Z,3.773
2023-03-01T12:05:43.884Z,3.846
2023-03-01T12:06:37.442Z,3.881
2023-03-01T12:07:36.291Z,3.851
2023-03-01T12:08:36.449Z,3.861
2023-03-01T12:09:57.763Z,3.768
2023-03-01T12:11:36.021Z,3.713
2023-03-01T12:12:35.814Z,3.746
2023-03-01T12:13:38.714Z,3.825
2023-03-01T12:14:36.269Z,3.815
2023-03-01T12:15:50.852Z,3.775
2023-03-01T12:16:52.423Z,3.806
2023-03-01T12:17:36.804Z,3.846
2023-03-01T12:18:36.107Z,3.886
2023-03-01T12:19:35.338Z,3.930
2023-03-01T12:20:35.806Z,3.916
2023-03-01T12:21:35.811Z,3.869
2023-03-01T12:22:36.504Z,3.901
2023-03-01T12:23:36.190Z,3.951
2023-03-01T12:24:37.056Z,4.026
2023-03-01T12:25:50.323Z,4.111
2023-03-01T12:26:38.272Z,4.164
2023-03-01T12:27:36.224Z,4.204
2023-03-01T12:28:36.597Z,4.258
2023-03-01T12:29:36.702Z,4.328
2023-03-01T12:30:36.566Z,4.371
2023-03-01T12:31:36.661Z,4.366
2023-03-01T12:32:36.676Z,4.358
2023-03-01T12:33:37.379Z,4.413
2023-03-01T12:34:36.444Z,4.469
2023-03-01T12:35:36.560Z,4.506
2023-03-01T12:36:37.287Z,4.548
2023-03-01T12:37:36.615Z,4.556
2023-03-01T12:38:36.078Z,4.570
2023-03-01T12:39:36.285Z,4.550
2023-03-01T12:40:36.898Z,4.598
2023-03-01T12:41:36.672Z,4.673
2023-03-01T12:42:36.759Z,4.769
2023-03-01T12:43:37.438Z,4.813
2023-03-01T12:44:36.334Z,4.833
2023-03-01T12:45:37.670Z,4.846
2023-03-01T12:46:36.853Z,4.855
2023-03-01T12:47:38.042Z,4.855
2023-03-01T12:48:37.211Z,4.873
2023-03-01T12:49:36.164Z,4.900
2023-03-01T12:50:36.948Z,4.988
2023-03-01T12:51:36.622Z,5.103
2023-03-01T12:52:36.871Z,5.206
2023-03-01T12:53:36.409Z,5.276
2023-03-01T12:54:37.014Z,5.298
2023-03-01T12:55:37.244Z,5.352
2023-03-01T12:56:36.139Z,5.354
2023-03-01T12:57:36.345Z,5.349
2023-03-01T12:58:49.062Z,5.381
2023-03-01T12:59:37.942Z,5.411
2023-03-01T13:00:39.557Z,5.424
2023-03-01T13:01:38.122Z,5.401
2023-03-01T13:02:36.791Z,5.387
2023-03-01T13:03:36.388Z,5.322
2023-03-01T13:04:38.152Z,5.323
2023-03-01T13:05:36.613Z,5.346
2023-03-01T13:06:43.189Z,5.401
2023-03-01T13:07:38.158Z,5.432
2023-03-01T13:08:38.152Z,5.454
2023-03-01T13:10:38.151Z,5.469
2023-03-01T13:11:36.839Z,5.468
2023-03-01T13:12:37.745Z,5.5
2023-03-01T13:13:37.950Z,5.528
2023-03-01T13:14:36.391Z,5.573
2023-03-01T13:15:37.235Z,5.610
2023-03-01T13:16:36.800Z,5.626
2023-03-01T13:17:36.649Z,5.631
2023-03-01T13:18:36.783Z,5.636
2023-03-01T13:19:37.053Z,5.666
2023-03-01T13:20:36.249Z,5.704
2023-03-01T13:21:35.802Z,5.728
2023-03-01T13:22:49.784Z,5.726
2023-03-01T13:23:36.921Z,5.756
2023-03-01T13:24:37.535Z,5.773
2023-03-01T13:25:45.281Z,5.780
2023-03-01T13:26:35.944Z,5.743